Time;durP1;ratioP1;P1;durP2;ratioP2;P2;SDS_P1;SDS_P2;PMS_P1;PMS_P2;Temp;Humidity;BMP_temperature;BMP_pressure;BME280_temperature;BME280_humidity;BME280_pressure;Samples;Min_cycle;Max_cycle;Signal;HPM_P1;HPM_P2
2021/07/26 00:02:00;;;;;;;24.05;16.57;;;;;;;18.57;73.42;99977.33;1711384;82;21114;-66
2021/07/26 00:04:26;;;;;;;20.65;17.17;;;;;;;18.59;73.36;99981.41;1746489;82;21074;-66
2021/07/26 00:06:53;;;;;;;23.98;19.62;;;;;;;18.58;73.40;99987.23;1747236;82;21031;-66
2021/07/26 00:09:19;;;;;;;22.42;19.45;;;;;;;18.54;73.45;99984.86;1749597;82;21054;-66
2021/07/26 00:11:46;;;;;;;25.62;20.08;;;;;;;18.55;73.41;99985.12;1753025;82;21027;-66
2021/07/26 00:14:13;;;;;;;28.23;18.52;;;;;;;18.60;73.17;99986.36;1752721;82;21094;-66
2021/07/26 00:16:39;;;;;;;;;;;;;;;18.60;73.24;99987.16;1725988;83;21581;-66
2021/07/26 00:19:07;;;;;;;25.57;20.08;;;;;;;18.59;73.39;99984.17;1725364;82;20142;-66
2021/07/26 00:21:35;;;;;;;24.47;20.48;;;;;;;18.49;73.78;99979.47;1723058;83;21480;-66
2021/07/26 00:24:04;;;;;;;25.48;20.10;;;;;;;18.49;73.85;99977.53;1736563;82;21075;-66
2021/07/26 00:26:32;;;;;;;29.23;22.22;;;;;;;18.53;73.76;99983.26;1753070;82;21066;-67
2021/07/26 00:29:00;;;;;;;31.12;20.75;;;;;;;18.54;73.76;99977.97;1752862;82;21043;-67
2021/07/26 00:31:26;;;;;;;;;;;;;;;18.58;73.74;99985.85;1755578;82;21051;-67
2021/07/26 00:34:20;;;;;;;27.67;20.40;;;;;;;18.60;73.56;99983.61;1746215;82;20105;-67
2021/07/26 00:36:54;;;;;;;27.80;20.57;;;;;;;18.56;73.61;99986.75;1744018;82;20979;-67
2021/07/26 00:39:23;;;;;;;28.75;20.80;;;;;;;18.53;73.93;99982.66;1723470;83;21518;-67
2021/07/26 00:41:49;;;;;;;23.95;18.85;;;;;;;18.50;74.10;99974.19;1723021;82;21027;-67
2021/07/26 00:44:17;;;;;;;27.15;19.07;;;;;;;18.51;73.99;99980.80;1723823;82;21034;-67
2021/07/26 00:46:45;;;;;;;23.67;17.85;;;;;;;18.54;73.73;99976.59;1723015;82;21534;-67
2021/07/26 00:49:14;;;;;;;27.87;18.42;;;;;;;18.56;73.54;99979.86;1723237;83;21011;-66
2021/07/26 00:51:44;;;;;;;23.47;18.80;;;;;;;18.59;73.37;99980.03;1737486;82;21007;-66
2021/07/26 00:54:12;;;;;;;24.55;16.73;;;;;;;18.60;73.19;99976.13;1726218;82;21882;-66
2021/07/26 00:56:39;;;;;;;28.40;17.77;;;;;;;18.56;73.14;99972.97;1753052;82;21546;-66
2021/07/26 00:59:05;;;;;;;27.00;17.07;;;;;;;18.51;73.26;99976.67;1751714;82;21101;-66
2021/07/26 01:01:32;;;;;;;;;;;;;;;18.50;73.21;99963.98;1754385;82;21085;-66
2021/07/26 01:03:58;;;;;;;19.90;15.43;;;;;;;18.52;73.02;99962.33;1753064;82;20134;-66
2021/07/26 01:06:24;;;;;;;;;;;;;;;18.48;72.92;99960.73;1755900;82;21501;-66
2021/07/26 01:11:43;;;;;;;21.45;16.90;;;;;;;18.47;73.07;99953.59;1810069;79;23003;-66
2021/07/26 01:14:11;;;;;;;21.82;17.05;;;;;;;18.38;73.20;99954.95;1751557;82;21017;-66
2021/07/26 01:16:39;;;;;;;25.20;16.67;;;;;;;18.40;73.12;99957.38;1751246;80;21089;-66
2021/07/26 01:19:05;;;;;;;;;;;;;;;18.47;72.86;99956.34;1753947;82;21643;-66
2021/07/26 01:21:32;;;;;;;22.42;15.88;;;;;;;18.50;72.76;99954.89;1756584;80;20137;-67
2021/07/26 01:24:00;;;;;;;19.37;16.02;;;;;;;18.46;72.81;99954.72;1761049;81;21072;-66
2021/07/26 01:26:27;;;;;;;25.27;16.25;;;;;;;18.46;72.84;99952.55;1761158;81;21096;-67
2021/07/26 01:28:57;;;;;;;18.37;15.85;;;;;;;18.41;73.10;99954.87;1761197;81;21084;-67
2021/07/26 01:31:23;;;;;;;23.12;15.18;;;;;;;18.39;73.20;99951.05;1760556;81;21647;-67
2021/07/26 01:33:50;;;;;;;18.82;15.23;;;;;;;18.42;73.17;99954.31;1761061;80;21057;-67
2021/07/26 01:36:18;;;;;;;21.75;15.68;;;;;;;18.42;73.15;99954.31;1753779;81;21078;-68
2021/07/26 01:38:45;;;;;;;24.50;16.12;;;;;;;18.42;73.07;99953.75;1755197;80;21058;-67
2021/07/26 01:41:18;;;;;;;24.10;15.63;;;;;;;18.41;73.00;99952.12;1759172;81;21091;-67
2021/07/26 01:46:35;;;;;;;17.87;14.15;;;;;;;18.36;73.10;99950.88;1760843;81;21002;-66
2021/07/26 01:49:28;;;;;;;21.90;14.55;;;;;;;18.40;73.01;99950.48;1758003;81;20923;-66
2021/07/26 01:51:54;;;;;;;18.12;14.28;;;;;;;18.42;72.92;99952.94;1761480;80;21046;-66
2021/07/26 01:54:20;;;;;;;;;;;;;;;18.40;72.79;99951.86;1763926;81;21054;-66
2021/07/26 01:56:48;;;;;;;20.32;14.95;;;;;;;18.35;72.90;99956.94;1761453;80;20148;-67
2021/07/26 01:59:14;;;;;;;16.65;13.95;;;;;;;18.22;73.17;99952.91;1760937;81;21584;-67
2021/07/26 02:01:41;;;;;;;20.55;14.98;;;;;;;18.19;73.43;99952.17;1759919;81;21031;-67
2021/07/26 02:04:07;;;;;;;;;;;;;;;18.19;73.59;99952.99;1762464;81;21069;-66
2021/07/26 02:06:33;;;;;;;20.48;14.75;;;;;;;18.19;73.70;99958.50;1759655;81;20106;-66
2021/07/26 02:09:00;;;;;;;22.75;14.28;;;;;;;18.15;73.91;99958.06;1734376;81;21490;-66
2021/07/26 02:11:26;;;;;;;16.65;14.63;;;;;;;18.15;73.90;99955.31;1725274;83;21122;-66
2021/07/26 02:13:53;;;;;;;18.02;14.58;;;;;;;18.14;73.88;99960.59;1724722;82;21117;-66
2021/07/26 02:16:20;;;;;;;;;;;;;;;18.10;74.00;99963.73;1727137;83;21071;-66
2021/07/26 02:18:48;;;;;;;19.07;14.25;;;;;;;18.08;74.13;99959.08;1743893;82;20121;-66
2021/07/26 02:21:14;;;;;;;17.42;13.95;;;;;;;18.04;74.21;99960.27;1726335;82;21661;-66
2021/07/26 02:23:40;;;;;;;20.35;14.98;;;;;;;18.05;74.11;99964.66;1755566;80;21070;-66
2021/07/26 02:26:07;;;;;;;;;;;;;;;18.06;74.04;99960.79;1757842;82;21595;-66
2021/07/26 02:28:33;;;;;;;16.10;13.95;;;;;;;18.06;74.13;99966.30;1755498;81;20134;-66
2021/07/26 02:30:59;;;;;;;19.10;14.10;;;;;;;17.97;74.43;99961.29;1725715;82;21064;-66
2021/07/26 02:33:26;;;;;;;18.92;14.07;;;;;;;17.97;74.46;99966.80;1755475;81;21133;-66
2021/07/26 02:35:52;;;;;;;16.95;14.15;;;;;;;18.03;74.19;99961.98;1754801;82;21501;-66
2021/07/26 02:38:19;;;;;;;18.62;14.25;;;;;;;18.05;74.12;99967.42;1748481;81;21049;-67
2021/07/26 02:40:45;;;;;;;;;;;;;;;18.07;74.12;99970.66;1753254;82;21640;-67
2021/07/26 02:43:11;;;;;;;20.48;14.70;;;;;;;18.05;74.04;99968.80;1753783;81;20111;-67
2021/07/26 02:45:38;;;;;;;18.57;13.32;;;;;;;17.97;74.21;99971.48;1754125;82;21598;-67
2021/07/26 02:48:05;;;;;;;18.77;14.00;;;;;;;17.99;74.13;99971.45;1755416;80;21132;-67
2021/07/26 02:50:31;;;;;;;17.48;13.65;;;;;;;18.08;73.99;99971.48;1755779;82;21049;-66
2021/07/26 02:53:00;;;;;;;;;;;;;;;18.14;73.82;99973.78;1728612;82;21093;-66
2021/07/26 02:55:27;;;;;;;18.40;13.43;;;;;;;18.19;73.85;99979.72;1753073;82;20197;-66
2021/07/26 02:57:54;;;;;;;14.90;13.03;;;;;;;18.13;74.11;99977.69;1721566;82;21099;-66
2021/07/26 03:00:20;;;;;;;17.48;13.20;;;;;;;18.16;73.98;99978.42;1746406;82;21002;-66
2021/07/26 03:02:46;;;;;;;;;;;;;;;18.24;73.66;99971.34;1758132;80;21564;-66
2021/07/26 03:05:12;;;;;;;21.00;14.47;;;;;;;18.31;73.33;99971.70;1755310;82;20130;-67
2021/07/26 03:07:39;;;;;;;;;;;;;;;18.28;73.35;99972.34;1728623;82;21077;-67
2021/07/26 03:10:07;;;;;;;17.40;13.62;;;;;;;18.28;73.29;99973.71;1754428;81;20172;-67
2021/07/26 03:12:33;;;;;;;17.87;13.90;;;;;;;18.25;73.36;99977.08;1747600;81;21050;-66
2021/07/26 03:15:00;;;;;;;19.25;13.00;;;;;;;18.30;73.13;99976.39;1746552;82;21587;-66
2021/07/26 03:17:27;;;;;;;15.28;12.37;;;;;;;18.43;72.96;99968.32;1702602;82;21082;-66
2021/07/26 03:19:57;;;;;;;17.90;12.73;;;;;;;18.54;72.93;99974.65;1747230;82;21033;-66
2021/07/26 03:22:53;;;;;;;16.27;13.03;;;;;;;18.62;72.97;99979.39;1747641;81;21084;-66
2021/07/26 03:25:19;;;;;;;17.60;12.95;;;;;;;18.65;73.07;99975.99;1747569;82;21051;-66
2021/07/26 03:27:48;;;;;;;20.12;13.03;;;;;;;18.72;73.26;99982.42;1747545;81;21652;-67
2021/07/26 03:30:16;;;;;;;17.02;12.53;;;;;;;18.79;73.21;99977.25;1723528;82;21415;-68
2021/07/26 03:32:44;;;;;;;15.15;13.03;;;;;;;18.86;72.81;99984.48;1711693;83;21135;-68
2021/07/26 03:35:12;;;;;;;17.52;13.78;;;;;;;18.89;72.66;99981.08;1718169;82;21555;-68
2021/07/26 03:37:38;;;;;;;17.17;12.53;;;;;;;18.95;72.69;99987.28;1737051;81;21090;-67
2021/07/26 03:40:06;;;;;;;15.70;12.37;;;;;;;19.07;72.73;99984.13;1746591;82;21518;-67
2021/07/26 03:42:34;;;;;;;17.92;12.88;;;;;;;19.27;72.64;99995.92;1747620;81;21061;-68
2021/07/26 03:45:01;;;;;;;22.37;13.28;;;;;;;19.46;72.35;99991.51;1745984;82;20995;-68
2021/07/26 03:47:28;;;;;;;18.05;13.22;;;;;;;19.65;72.01;99989.81;1745931;81;21067;-68
2021/07/26 03:49:54;;;;;;;16.75;12.88;;;;;;;19.85;71.63;99992.72;1742147;82;21185;-68
2021/07/26 03:52:21;;;;;;;20.15;13.93;;;;;;;20.12;70.94;99991.52;1741614;81;21126;-68
2021/07/26 03:54:47;;;;;;;17.62;12.53;;;;;;;20.39;70.30;99994.50;1717917;82;21503;-68
2021/07/26 03:57:14;;;;;;;14.83;12.63;;;;;;;20.72;69.56;99986.40;1743883;82;21086;-68
2021/07/26 03:59:40;;;;;;;14.70;12.68;;;;;;;21.08;68.09;99989.42;1741318;82;21091;-68
2021/07/26 04:02:06;;;;;;;17.27;12.93;;;;;;;21.35;67.12;99993.69;1735842;82;21087;-68
2021/07/26 04:04:33;;;;;;;17.67;12.28;;;;;;;21.60;66.39;99993.25;1711855;84;21000;-68
2021/07/26 04:07:07;;;;;;;15.65;12.23;;;;;;;21.84;65.76;99996.94;1715650;83;21035;-68
2021/07/26 04:09:36;;;;;;;14.65;11.57;;;;;;;22.09;64.54;99995.67;1740602;82;21024;-69
2021/07/26 04:12:03;;;;;;;13.70;12.30;;;;;;;22.32;63.94;99995.48;1737206;82;21573;-69
2021/07/26 04:14:29;;;;;;;13.40;11.35;;;;;;;22.55;63.12;99991.15;1746978;82;21539;-68
2021/07/26 04:16:55;;;;;;;12.60;10.95;;;;;;;22.84;63.00;99997.67;1739601;81;21530;-68
2021/07/26 04:19:22;;;;;;;16.00;11.18;;;;;;;23.11;62.24;99999.73;1747646;82;21036;-68
2021/07/26 04:21:49;;;;;;;13.45;10.53;;;;;;;23.44;61.23;100001.80;1742684;81;21057;-69
2021/07/26 04:24:15;;;;;;;13.10;10.98;;;;;;;23.74;60.66;99995.33;1747407;82;21019;-69
2021/07/26 04:26:44;;;;;;;14.07;11.18;;;;;;;24.02;59.32;99993.95;1746486;81;21068;-69
2021/07/26 04:29:10;;;;;;;14.03;12.40;;;;;;;24.27;58.91;99997.65;1747060;82;20992;-68
2021/07/26 04:31:36;;;;;;;16.32;11.85;;;;;;;24.40;58.57;99999.79;1746510;81;20995;-68
2021/07/26 04:34:02;;;;;;;12.68;11.25;;;;;;;24.57;58.89;99996.66;1747277;82;21001;-68
2021/07/26 04:36:28;;;;;;;14.05;11.40;;;;;;;24.81;58.24;99997.05;1747466;81;21085;-68
2021/07/26 04:38:55;;;;;;;14.50;9.78;;;;;;;25.10;57.76;99997.99;1747636;82;21061;-68
2021/07/26 04:41:21;;;;;;;12.73;9.50;;;;;;;25.29;55.46;99993.64;1747166;82;21019;-68
2021/07/26 04:43:48;;;;;;;16.27;9.43;;;;;;;25.31;54.12;99995.46;1747326;81;22031;-69
2021/07/26 04:46:15;;;;;;;14.55;9.83;;;;;;;25.44;54.59;99998.34;1747432;82;21049;-69
2021/07/26 04:48:43;;;;;;;16.00;9.98;;;;;;;25.56;53.93;99989.88;1747285;81;21632;-69
2021/07/26 04:51:09;;;;;;;11.55;9.70;;;;;;;25.56;53.93;99989.88;1747340;82;21018;-69
2021/07/26 04:53:36;;;;;;;12.58;9.90;;;;;;;25.61;53.39;99991.78;1747373;81;21053;-69
2021/07/26 04:56:03;;;;;;;11.85;9.75;;;;;;;25.61;53.22;99992.39;1747515;82;21030;-67
2021/07/26 04:58:29;;;;;;;10.32;9.20;;;;;;;25.65;53.33;99995.45;1726322;82;21108;-66
2021/07/26 05:00:56;;;;;;;10.98;9.08;;;;;;;25.70;53.33;99999.94;1747339;82;21575;-66
2021/07/26 05:03:23;;;;;;;13.32;9.20;;;;;;;25.73;53.37;100002.80;1747422;81;21145;-68
2021/07/26 05:05:50;;;;;;;14.18;9.68;;;;;;;25.83;53.40;100003.37;1747718;82;21065;-69
2021/07/26 05:08:17;;;;;;;12.90;9.80;;;;;;;25.86;52.47;100002.09;1747411;81;21031;-69
2021/07/26 05:10:47;;;;;;;16.05;10.53;;;;;;;25.82;52.19;100008.76;1747040;82;21093;-69
2021/07/26 05:13:15;;;;;;;13.25;9.83;;;;;;;25.77;51.34;100004.27;1747096;81;21093;-67
2021/07/26 05:15:42;;;;;;;13.60;10.05;;;;;;;25.77;51.34;100004.27;1747640;82;21037;-67
2021/07/26 05:18:10;;;;;;;14.55;9.90;;;;;;;25.59;50.75;100003.90;1744280;81;21126;-68
2021/07/26 05:20:38;;;;;;;11.65;9.45;;;;;;;25.53;51.97;100008.73;1712158;84;21000;-67
2021/07/26 05:23:09;;;;;;;11.22;8.50;;;;;;;25.59;51.53;100001.69;1711767;82;21063;-67
2021/07/26 05:25:37;;;;;;;10.88;9.25;;;;;;;25.71;51.46;100005.16;1712122;84;21515;-67
2021/07/26 05:28:04;;;;;;;12.93;9.15;;;;;;;25.87;50.66;100005.66;1711884;82;21578;-67
2021/07/26 05:30:30;;;;;;;11.00;8.83;;;;;;;25.89;50.74;99994.96;1699642;82;21048;-67
2021/07/26 05:32:57;;;;;;;11.38;9.13;;;;;;;26.00;50.80;100000.17;1724466;82;21142;-67
2021/07/26 05:35:23;;;;;;;14.03;8.98;;;;;;;26.11;50.25;100001.19;1711814;84;21557;-67
2021/07/26 05:37:49;;;;;;;12.50;8.88;;;;;;;26.20;50.12;99998.41;1722668;82;21113;-67
2021/07/26 05:40:16;;;;;;;12.73;8.60;;;;;;;26.29;49.43;99987.60;1747449;82;21615;-68
2021/07/26 05:42:43;;;;;;;12.75;8.45;;;;;;;26.35;49.51;99994.48;1747603;81;21022;-68
2021/07/26 05:45:11;;;;;;;11.22;8.65;;;;;;;26.43;49.70;99992.05;1747475;82;21101;-68
2021/07/26 05:47:37;;;;;;;13.25;8.88;;;;;;;26.56;49.64;99997.06;1700936;82;21058;-67
2021/07/26 05:50:06;;;;;;;11.80;8.58;;;;;;;26.75;50.55;99998.97;1711764;84;21058;-68
2021/07/26 05:52:32;;;;;;;11.40;8.63;;;;;;;26.95;49.50;99995.54;1677411;82;21070;-67
2021/07/26 05:55:00;;;;;;;12.30;8.50;;;;;;;27.18;48.91;99995.70;1712089;83;21035;-67
2021/07/26 05:57:27;;;;;;;12.88;8.28;;;;;;;27.35;48.43;100000.55;1711808;82;21083;-68
2021/07/26 05:59:57;;;;;;;14.58;8.40;;;;;;;27.46;48.59;99997.31;1714534;82;21063;-67
2021/07/26 06:02:21;;;;;;;11.12;8.15;;;;;;;27.52;47.72;100002.22;1714789;82;21586;-67
2021/07/26 06:04:48;;;;;;;10.60;8.15;;;;;;;27.54;47.23;100000.42;1674732;83;21059;-67
2021/07/26 06:07:17;;;;;;;12.43;9.48;;;;;;;27.56;47.59;99998.08;1723179;82;21033;-67
2021/07/26 06:09:46;;;;;;;10.63;8.38;;;;;;;27.64;47.67;100001.16;1747439;82;21037;-67
2021/07/26 06:12:11;;;;;;;9.05;8.05;;;;;;;27.74;47.24;100002.50;1747387;81;21081;-67
2021/07/26 06:14:38;;;;;;;9.98;8.45;;;;;;;27.76;47.58;100002.91;1747815;82;21033;-67
2021/07/26 06:17:05;;;;;;;9.78;8.45;;;;;;;27.83;46.99;100007.20;1726000;82;21989;-67
2021/07/26 06:19:31;;;;;;;15.15;9.10;;;;;;;27.86;47.26;100007.23;1716539;82;21047;-67
2021/07/26 06:21:57;;;;;;;10.60;9.38;;;;;;;27.86;47.70;100011.44;1740280;81;21094;-67
2021/07/26 06:24:24;;;;;;;11.40;8.23;;;;;;;27.96;48.24;100013.55;1747437;82;21469;-67
2021/07/26 06:26:59;;;;;;;20.45;8.95;;;;;;;28.23;48.54;100014.89;1747505;81;21050;-67
2021/07/26 06:29:24;;;;;;;12.53;8.35;;;;;;;28.41;46.33;100018.08;1747298;82;21497;-67
2021/07/26 06:31:51;;;;;;;12.05;7.97;;;;;;;28.57;46.31;100019.23;1747497;81;21564;-67
2021/07/26 06:34:17;;;;;;;9.95;7.47;;;;;;;28.72;46.46;100021.61;1747443;82;21025;-67
2021/07/26 06:36:44;;;;;;;10.55;7.78;;;;;;;28.96;46.39;100024.63;1747663;81;21562;-67
2021/07/26 06:39:11;;;;;;;10.78;7.95;;;;;;;29.08;44.65;100023.52;1747424;82;21552;-67
2021/07/26 06:44:18;;;;;;;;;;;;;;;28.97;45.05;100026.83;1822021;79;22752;-67
2021/07/26 06:46:45;;;;;;;;;;;;;;;28.85;45.09;100027.93;1780013;80;20104;-67
2021/07/26 06:49:11;;;;;;;11.10;7.83;;;;;;;28.75;45.25;100035.65;1746645;82;20134;-67
2021/07/26 06:51:38;;;;;;;13.22;7.45;;;;;;;28.71;45.17;100038.20;1746351;81;21549;-67
2021/07/26 06:54:04;;;;;;;9.48;7.00;;;;;;;28.70;44.93;100031.79;1746253;82;21032;-67
2021/07/26 06:56:31;;;;;;;8.83;7.47;;;;;;;28.73;45.74;100037.23;1751502;80;20998;-67
2021/07/26 06:58:57;;;;;;;10.88;7.28;;;;;;;28.82;46.66;100034.91;1757853;81;21018;-67
2021/07/26 07:01:25;;;;;;;14.55;8.05;;;;;;;28.99;46.07;100040.66;1761224;81;20985;-67
2021/07/26 07:06:27;;;;;;;12.88;7.72;;;;;;;29.32;45.66;100036.13;1819116;79;22897;-67
2021/07/26 07:08:55;;;;;;;11.40;7.33;;;;;;;29.43;45.20;100042.02;1760901;81;21065;-68
2021/07/26 07:11:24;;;;;;;9.23;7.37;;;;;;;29.61;44.30;100042.12;1761189;81;21022;-67
2021/07/26 07:13:50;;;;;;;8.30;7.08;;;;;;;29.76;43.48;100047.22;1761271;80;21067;-67
2021/07/26 07:16:21;;;;;;;9.98;7.10;;;;;;;29.79;43.02;100043.03;1761073;81;21025;-67
2021/07/26 07:18:56;;;;;;;9.78;7.35;;;;;;;29.84;43.44;100049.68;1761372;80;21439;-67
2021/07/26 07:21:28;;;;;;;14.05;7.97;;;;;;;30.04;43.34;100041.14;1761185;81;21036;-67
2021/07/26 07:23:57;;;;;;;11.60;7.25;;;;;;;30.22;43.08;100039.02;1761500;81;21505;-67
2021/07/26 07:26:24;;;;;;;9.30;6.72;;;;;;;30.45;41.89;100038.90;1761093;81;21180;-67
2021/07/26 07:28:51;;;;;;;7.45;6.47;;;;;;;30.60;41.30;100032.11;1761254;80;21005;-67
2021/07/26 07:31:22;;;;;;;10.10;6.83;;;;;;;30.67;39.67;100035.52;1761360;81;21016;-68
2021/07/26 07:33:45;;;;;;;8.43;6.75;;;;;;;30.61;39.29;100028.67;1759890;80;21018;-67
2021/07/26 07:36:12;;;;;;;7.83;6.53;;;;;;;30.50;38.50;100027.25;1761367;81;21496;-68
2021/07/26 07:38:39;;;;;;;8.78;6.35;;;;;;;30.34;39.13;100040.03;1761190;80;21069;-68
2021/07/26 07:41:06;;;;;;;11.28;6.22;;;;;;;30.26;40.86;100037.80;1761105;81;21061;-67
2021/07/26 07:43:33;;;;;;;10.93;6.40;;;;;;;30.34;40.26;100040.84;1761125;80;21604;-67
2021/07/26 07:45:59;;;;;;;9.53;6.00;;;;;;;30.47;40.17;100033.67;1760935;81;21030;-67
2021/07/26 07:48:27;;;;;;;11.43;6.20;;;;;;;30.64;40.47;100044.76;1760427;80;21076;-67
2021/07/26 07:50:55;;;;;;;9.50;6.60;;;;;;;30.75;39.70;100036.34;1761055;81;21062;-67
2021/07/26 07:53:22;;;;;;;10.50;6.40;;;;;;;30.72;38.70;100040.73;1749871;80;21593;-67
2021/07/26 07:55:48;;;;;;;9.25;6.40;;;;;;;30.69;39.40;100047.75;1725340;83;21062;-67
2021/07/26 07:58:16;;;;;;;10.20;6.05;;;;;;;30.75;39.67;100039.15;1725289;82;21083;-67
2021/07/26 08:00:42;;;;;;;7.62;5.70;;;;;;;30.81;38.81;100043.16;1725470;83;21557;-67
2021/07/26 08:03:09;;;;;;;8.73;6.08;;;;;;;30.88;38.09;100041.76;1727416;81;21114;-67
2021/07/26 08:05:35;;;;;;;7.80;5.78;;;;;;;30.78;38.14;100050.98;1733443;82;21060;-69
2021/07/26 08:08:02;;;;;;;7.35;5.55;;;;;;;30.76;38.65;100047.76;1756051;81;21073;-68
2021/07/26 08:10:28;;;;;;;9.05;5.95;;;;;;;30.73;38.24;100042.94;1726775;82;21611;-68
2021/07/26 08:12:56;;;;;;;9.15;6.05;;;;;;;30.55;38.71;100047.94;1755887;81;21057;-67
2021/07/26 08:15:23;;;;;;;9.00;5.72;;;;;;;30.53;39.13;100041.13;1756218;82;21092;-68
2021/07/26 08:17:49;;;;;;;6.55;5.60;;;;;;;30.67;39.11;100047.36;1755676;81;21045;-67
2021/07/26 08:20:17;;;;;;;9.08;5.20;;;;;;;30.73;37.57;100042.34;1755687;82;21084;-68
2021/07/26 08:22:45;;;;;;;6.37;4.90;;;;;;;30.62;36.70;100041.52;1755400;81;21081;-68
2021/07/26 08:25:13;;;;;;;8.73;5.08;;;;;;;30.35;36.86;100047.27;1755262;82;21089;-68
2021/07/26 08:27:54;;;;;;;6.80;4.97;;;;;;;30.30;37.56;100051.26;1721119;82;21138;-68
2021/07/26 08:30:26;;;;;;;6.33;5.08;;;;;;;30.39;38.19;100053.11;1720104;83;21072;-68
2021/07/26 08:32:52;;;;;;;6.40;4.75;;;;;;;30.54;36.73;100053.95;1750506;81;21076;-67
2021/07/26 08:35:19;;;;;;;7.50;5.20;;;;;;;30.65;36.51;100049.75;1755911;82;21001;-68
2021/07/26 08:37:45;;;;;;;8.15;4.97;;;;;;;30.79;34.56;100043.55;1755774;81;21014;-68
2021/07/26 08:40:12;;;;;;;7.92;5.83;;;;;;;30.90;35.46;100042.14;1755804;82;21022;-68
2021/07/26 08:42:39;;;;;;;6.08;4.92;;;;;;;30.87;36.45;100042.36;1755685;81;21517;-68
2021/07/26 08:45:06;;;;;;;8.65;5.35;;;;;;;30.94;37.07;100043.77;1755770;82;20982;-68
2021/07/26 08:47:34;;;;;;;6.92;4.97;;;;;;;31.11;35.67;100047.02;1755792;81;21025;-68
2021/07/26 08:50:05;;;;;;;5.50;5.00;;;;;;;31.24;35.72;100048.20;1755411;82;21002;-68
2021/07/26 08:52:38;;;;;;;7.40;5.42;;;;;;;31.37;35.74;100041.75;1755798;81;21034;-68
2021/07/26 08:55:05;;;;;;;6.22;5.60;;;;;;;31.45;35.76;100043.95;1754780;82;21061;-69
2021/07/26 08:57:34;;;;;;;8.68;5.22;;;;;;;31.43;35.38;100047.16;1755585;81;21085;-69
2021/07/26 09:00:01;;;;;;;8.83;5.35;;;;;;;31.48;35.25;100040.33;1754723;82;21014;-67
2021/07/26 09:02:27;;;;;;;8.23;5.50;;;;;;;31.45;34.80;100042.55;1755117;81;21081;-67
2021/07/26 09:04:54;;;;;;;7.62;5.53;;;;;;;31.35;36.02;100038.56;1755230;82;21191;-67
2021/07/26 09:07:26;;;;;;;7.72;5.10;;;;;;;31.35;36.78;100039.16;1752790;81;21129;-67
2021/07/26 09:09:52;;;;;;;7.42;5.17;;;;;;;31.39;35.15;100037.92;1724847;82;21099;-67
2021/07/26 09:12:36;;;;;;;7.28;5.35;;;;;;;31.34;35.74;100042.56;1722845;83;21076;-67
2021/07/26 09:15:04;;;;;;;8.78;5.42;;;;;;;31.36;34.55;100033.11;1731793;82;21560;-67
2021/07/26 09:17:45;;;;;;;7.60;5.28;;;;;;;31.34;33.98;100031.31;1753061;81;21097;-67
2021/07/26 09:20:12;;;;;;;7.17;5.10;;;;;;;31.30;34.79;100030.52;1753182;82;21029;-67
2021/07/26 09:22:42;;;;;;;11.28;5.50;;;;;;;31.19;35.48;100032.53;1753102;81;21041;-68
2021/07/26 09:25:28;;;;;;;7.33;5.45;;;;;;;31.23;35.78;100031.93;1724193;82;21542;-68
2021/07/26 09:27:59;;;;;;;7.78;5.42;;;;;;;31.24;33.72;100035.55;1723091;83;21064;-68
2021/07/26 09:30:29;;;;;;;6.83;5.35;;;;;;;31.15;33.68;100026.70;1723125;83;21076;-67
2021/07/26 09:32:55;;;;;;;5.80;4.85;;;;;;;31.25;36.02;100035.76;1723021;83;21111;-67
2021/07/26 09:35:24;;;;;;;7.30;4.87;;;;;;;31.45;34.88;100022.86;1748332;82;21073;-67
2021/07/26 09:38:00;;;;;;;7.60;5.22;;;;;;;31.67;33.63;100029.27;1729602;82;21079;-67
2021/07/26 09:40:32;;;;;;;;;;;;;;;31.82;33.58;100031.60;1719740;83;21069;-67
2021/07/26 09:42:57;;;;;;;9.50;5.20;;;;;;;31.99;32.62;100025.09;1721219;82;20158;-68
2021/07/26 09:45:25;;;;;;;8.45;5.00;;;;;;;31.95;32.23;100024.33;1694701;83;21614;-68
2021/07/26 09:48:14;;;;;;;6.60;4.72;;;;;;;31.88;32.81;100022.95;1723347;83;21603;-68
2021/07/26 09:50:48;;;;;;;8.00;5.20;;;;;;;31.79;33.73;100021.77;1722988;83;21036;-67
2021/07/26 09:53:19;;;;;;;9.73;5.75;;;;;;;31.72;34.39;100028.83;1721207;83;21031;-68
2021/07/26 09:55:48;;;;;;;6.83;5.17;;;;;;;31.66;34.26;100027.05;1717665;83;21502;-68
2021/07/26 09:58:16;;;;;;;6.05;5.15;;;;;;;31.57;34.15;100026.05;1722736;83;21052;-68
2021/07/26 10:00:44;;;;;;;7.50;5.42;;;;;;;31.61;34.91;100028.05;1723050;83;21031;-67
2021/07/26 10:03:13;;;;;;;6.33;4.67;;;;;;;31.69;34.01;100026.23;1718251;82;21071;-68
2021/07/26 10:05:41;;;;;;;7.95;4.90;;;;;;;31.74;34.32;100031.45;1706677;83;21094;-68
2021/07/26 10:08:09;;;;;;;8.48;5.65;;;;;;;31.76;32.98;100027.61;1685412;85;21047;-68
2021/07/26 10:10:37;;;;;;;9.38;5.45;;;;;;;31.76;33.25;100029.02;1685229;85;21122;-68
2021/07/26 10:13:04;;;;;;;6.90;5.33;;;;;;;31.74;33.02;100025.02;1708587;83;21027;-67
2021/07/26 10:15:32;;;;;;;7.47;5.37;;;;;;;31.68;32.96;100024.62;1725259;82;21094;-68
2021/07/26 10:17:59;;;;;;;7.15;5.30;;;;;;;31.71;33.16;100026.61;1725303;83;21063;-68
2021/07/26 10:20:29;;;;;;;5.72;5.12;;;;;;;31.78;33.21;100024.41;1725492;83;21114;-68
2021/07/26 10:23:14;;;;;;;8.35;5.10;;;;;;;31.69;32.64;100025.42;1722792;83;21031;-68
2021/07/26 10:25:45;;;;;;;8.85;5.10;;;;;;;31.49;33.18;100023.05;1725618;82;21094;-69
2021/07/26 10:28:32;;;;;;;8.78;5.83;;;;;;;31.36;33.95;100020.45;1725698;83;21066;-68
2021/07/26 10:30:59;;;;;;;7.80;5.15;;;;;;;31.19;33.39;100014.86;1721333;82;21050;-68
2021/07/26 10:33:25;;;;;;;7.25;5.20;;;;;;;30.98;34.14;100015.69;1691192;85;21579;-68
2021/07/26 10:35:55;;;;;;;8.55;5.65;;;;;;;30.85;34.49;100011.05;1691061;85;21143;-69
2021/07/26 10:38:47;;;;;;;7.28;5.15;;;;;;;30.86;35.41;100008.42;1691045;85;21138;-69
2021/07/26 10:41:45;;;;;;;6.60;5.20;;;;;;;30.94;35.12;100001.59;1657919;86;21055;-69
2021/07/26 10:44:23;;;;;;;7.08;5.42;;;;;;;31.07;35.74;100001.41;1735438;82;21513;-69
2021/07/26 10:47:07;;;;;;;6.72;5.45;;;;;;;31.24;33.69;100001.80;1657590;86;21044;-69
2021/07/26 10:49:50;;;;;;;5.50;4.55;;;;;;;31.44;34.41;99995.33;1658061;86;21570;-70
2021/07/26 10:52:28;;;;;;;6.97;5.03;;;;;;;31.65;33.30;100006.34;1725409;82;21629;-69
2021/07/26 10:54:58;;;;;;;8.40;5.70;;;;;;;31.75;32.92;99995.64;1690765;85;21015;-69
2021/07/26 10:57:46;;;;;;;6.95;5.70;;;;;;;31.87;34.03;100001.64;1725559;82;21114;-69
2021/07/26 11:00:16;;;;;;;8.05;5.70;;;;;;;31.95;32.56;99994.77;1725755;82;21030;-69
2021/07/26 11:02:44;;;;;;;9.03;5.33;;;;;;;32.05;31.36;99995.34;1695224;83;21047;-68
2021/07/26 11:05:31;;;;;;;9.63;5.53;;;;;;;32.04;32.91;99982.44;1720455;82;21484;-69
2021/07/26 11:08:20;;;;;;;9.68;5.33;;;;;;;32.09;32.93;99986.88;1725642;83;21090;-69
2021/07/26 11:10:57;;;;;;;6.40;5.65;;;;;;;32.10;31.87;99989.88;1723380;83;21058;-69
2021/07/26 11:13:51;;;;;;;6.80;5.40;;;;;;;32.09;30.75;99984.67;1725385;82;21019;-69
2021/07/26 11:16:46;;;;;;;5.58;5.08;;;;;;;32.16;32.10;99997.30;1725385;83;21137;-69
2021/07/26 11:19:36;;;;;;;8.15;5.22;;;;;;;32.17;29.97;99984.83;1720854;83;21558;-69
2021/07/26 11:22:23;;;;;;;6.00;4.67;;;;;;;32.18;30.76;99997.67;1725368;82;21954;-69
2021/07/26 11:24:54;;;;;;;6.47;5.60;;;;;;;32.17;30.56;99989.83;1727328;82;21062;-69
2021/07/26 11:27:26;;;;;;;7.00;5.15;;;;;;;32.16;30.72;99991.66;1657590;86;21056;-69
2021/07/26 11:29:55;;;;;;;6.20;5.12;;;;;;;32.17;31.60;99983.42;1658217;85;21019;-69
2021/07/26 11:32:24;;;;;;;6.20;5.40;;;;;;;32.25;30.93;99975.10;1696859;82;21079;-69
2021/07/26 11:35:00;;;;;;;5.58;4.87;;;;;;;32.31;31.47;99972.84;1725248;83;21019;-68
2021/07/26 11:37:36;;;;;;;7.75;5.50;;;;;;;32.39;31.97;99980.64;1725439;82;21027;-69
2021/07/26 11:40:08;;;;;;;7.42;5.40;;;;;;;32.49;30.13;99970.70;1706316;83;20971;-69
2021/07/26 11:42:39;;;;;;;7.50;5.28;;;;;;;32.41;29.77;99968.38;1657681;86;21107;-68
2021/07/26 11:45:07;;;;;;;6.37;5.22;;;;;;;32.34;30.76;99973.45;1653667;86;21016;-68
2021/07/26 11:47:39;;;;;;;9.73;5.37;;;;;;;32.31;29.88;99967.84;1657595;86;21071;-68